Terminal Aerodrome Forecast
Issued by NWS

Home | Current Version | Previous Version | Text Only | Print | Product List | Glossary On
Versions: 1 2 3 4 5 6 7 8 9 10 11 12
375
FTUS43 KDTX 290524
TAFDET
TAF
KDET 290524Z 2906/3006 02005KT P6SM FEW060 BKN150
     FM291400 04009KT P6SM SCT120 BKN200
     FM291800 07010KT P6SM SCT050 BKN060
     FM300200 04006KT P6SM FEW050 BKN150=

USA.gov is the U.S. government's official web portal to all federal, state and local government web resources and services.